sensor_id;sensor_type;location;lat;lon;timestamp;temperature;humidity
38020;DHT22;23829;51.350;17.286;2023-09-07T00:00:53;29.10;39.90
38020;DHT22;23829;51.350;17.286;2023-09-07T00:03:37;29.00;39.90
38020;DHT22;23829;51.350;17.286;2023-09-07T00:06:07;29.00;39.90
38020;DHT22;23829;51.350;17.286;2023-09-07T00:08:34;29.00;39.80
38020;DHT22;23829;51.350;17.286;2023-09-07T00:11:04;29.10;39.80
38020;DHT22;23829;51.350;17.286;2023-09-07T00:13:30;29.10;39.70
38020;DHT22;23829;51.350;17.286;2023-09-07T00:16:00;29.00;39.90
38020;DHT22;23829;51.350;17.286;2023-09-07T00:18:27;29.00;40.00
38020;DHT22;23829;51.350;17.286;2023-09-07T00:20:53;28.90;39.90
38020;DHT22;23829;51.350;17.286;2023-09-07T00:23:20;28.90;39.90
38020;DHT22;23829;51.350;17.286;2023-09-07T00:25:47;28.90;40.00
38020;DHT22;23829;51.350;17.286;2023-09-07T00:28:13;28.90;39.90
38020;DHT22;23829;51.350;17.286;2023-09-07T00:30:40;28.90;40.00
38020;DHT22;23829;51.350;17.286;2023-09-07T00:33:07;28.80;40.30
38020;DHT22;23829;51.350;17.286;2023-09-07T00:35:33;28.70;40.40
38020;DHT22;23829;51.350;17.286;2023-09-07T00:38:00;28.70;40.60
38020;DHT22;23829;51.350;17.286;2023-09-07T00:40:27;28.70;40.60
38020;DHT22;23829;51.350;17.286;2023-09-07T00:42:54;28.70;40.80
38020;DHT22;23829;51.350;17.286;2023-09-07T00:45:20;28.80;40.50
38020;DHT22;23829;51.350;17.286;2023-09-07T00:47:46;28.70;40.50
38020;DHT22;23829;51.350;17.286;2023-09-07T00:50:13;28.80;40.60
38020;DHT22;23829;51.350;17.286;2023-09-07T00:52:42;28.80;40.60
38020;DHT22;23829;51.350;17.286;2023-09-07T00:55:09;28.80;40.60
38020;DHT22;23829;51.350;17.286;2023-09-07T00:57:37;28.80;40.60
38020;DHT22;23829;51.350;17.286;2023-09-07T01:00:06;28.80;40.70
38020;DHT22;23829;51.350;17.286;2023-09-07T01:02:34;28.80;40.50
38020;DHT22;23829;51.350;17.286;2023-09-07T01:05:02;28.90;40.40
38020;DHT22;23829;51.350;17.286;2023-09-07T01:07:46;28.90;40.40
38020;DHT22;23829;51.350;17.286;2023-09-07T01:10:13;28.80;40.40
38020;DHT22;23829;51.350;17.286;2023-09-07T01:12:40;28.80;40.40
38020;DHT22;23829;51.350;17.286;2023-09-07T01:15:07;28.80;40.50
38020;DHT22;23829;51.350;17.286;2023-09-07T01:17:34;28.70;40.60
38020;DHT22;23829;51.350;17.286;2023-09-07T01:20:04;28.70;40.70
38020;DHT22;23829;51.350;17.286;2023-09-07T01:22:37;28.80;40.70
38020;DHT22;23829;51.350;17.286;2023-09-07T01:25:05;28.80;40.60
38020;DHT22;23829;51.350;17.286;2023-09-07T01:27:33;28.80;40.40
38020;DHT22;23829;51.350;17.286;2023-09-07T01:30:00;28.80;40.60
38020;DHT22;23829;51.350;17.286;2023-09-07T01:32:26;28.70;40.40
38020;DHT22;23829;51.350;17.286;2023-09-07T01:34:55;28.80;40.50
38020;DHT22;23829;51.350;17.286;2023-09-07T01:37:23;28.70;40.40
38020;DHT22;23829;51.350;17.286;2023-09-07T01:39:49;28.80;40.30
38020;DHT22;23829;51.350;17.286;2023-09-07T01:42:16;28.80;40.30
38020;DHT22;23829;51.350;17.286;2023-09-07T01:44:42;28.80;40.30
38020;DHT22;23829;51.350;17.286;2023-09-07T01:47:09;28.80;40.30
38020;DHT22;23829;51.350;17.286;2023-09-07T01:49:36;28.80;40.30
38020;DHT22;23829;51.350;17.286;2023-09-07T01:52:02;28.80;40.30
38020;DHT22;23829;51.350;17.286;2023-09-07T01:54:29;28.80;40.30
38020;DHT22;23829;51.350;17.286;2023-09-07T01:56:55;28.70;40.30
38020;DHT22;23829;51.350;17.286;2023-09-07T01:59:21;28.80;40.20
38020;DHT22;23829;51.350;17.286;2023-09-07T02:01:47;28.70;40.20
38020;DHT22;23829;51.350;17.286;2023-09-07T02:04:14;28.70;40.30
38020;DHT22;23829;51.350;17.286;2023-09-07T02:06:40;28.70;40.30
38020;DHT22;23829;51.350;17.286;2023-09-07T02:09:06;28.70;40.40
38020;DHT22;23829;51.350;17.286;2023-09-07T02:11:34;28.60;40.30
38020;DHT22;23829;51.350;17.286;2023-09-07T02:14:00;28.60;40.40
38020;DHT22;23829;51.350;17.286;2023-09-07T02:16:26;28.70;40.30
38020;DHT22;23829;51.350;17.286;2023-09-07T02:19:00;28.60;40.30
38020;DHT22;23829;51.350;17.286;2023-09-07T02:21:27;28.70;40.20
38020;DHT22;23829;51.350;17.286;2023-09-07T02:23:54;28.70;40.10
38020;DHT22;23829;51.350;17.286;2023-09-07T02:26:20;28.60;40.30
38020;DHT22;23829;51.350;17.286;2023-09-07T02:28:47;28.60;40.40
38020;DHT22;23829;51.350;17.286;2023-09-07T02:31:13;28.50;40.60
38020;DHT22;23829;51.350;17.286;2023-09-07T02:33:39;28.40;40.70
38020;DHT22;23829;51.350;17.286;2023-09-07T02:36:06;28.50;40.80
38020;DHT22;23829;51.350;17.286;2023-09-07T02:38:33;28.50;40.80
38020;DHT22;23829;51.350;17.286;2023-09-07T02:40:59;28.40;40.90
38020;DHT22;23829;51.350;17.286;2023-09-07T02:43:26;28.20;41.00
38020;DHT22;23829;51.350;17.286;2023-09-07T02:45:52;28.20;41.30
38020;DHT22;23829;51.350;17.286;2023-09-07T02:48:21;28.40;41.10
38020;DHT22;23829;51.350;17.286;2023-09-07T02:50:48;28.30;41.00
38020;DHT22;23829;51.350;17.286;2023-09-07T02:53:18;28.40;41.00
38020;DHT22;23829;51.350;17.286;2023-09-07T02:55:44;28.40;40.80
38020;DHT22;23829;51.350;17.286;2023-09-07T02:58:11;28.40;40.90
38020;DHT22;23829;51.350;17.286;2023-09-07T03:00:44;28.40;40.90
38020;DHT22;23829;51.350;17.286;2023-09-07T03:03:12;28.50;40.70
38020;DHT22;23829;51.350;17.286;2023-09-07T03:05:42;28.40;40.80
38020;DHT22;23829;51.350;17.286;2023-09-07T03:08:09;28.20;41.10
38020;DHT22;23829;51.350;17.286;2023-09-07T03:10:37;28.20;41.10
38020;DHT22;23829;51.350;17.286;2023-09-07T03:13:07;28.30;41.10
38020;DHT22;23829;51.350;17.286;2023-09-07T03:15:33;28.30;40.90
38020;DHT22;23829;51.350;17.286;2023-09-07T03:18:00;28.40;40.90
38020;DHT22;23829;51.350;17.286;2023-09-07T03:20:27;28.20;41.10
38020;DHT22;23829;51.350;17.286;2023-09-07T03:22:53;28.20;41.20
38020;DHT22;23829;51.350;17.286;2023-09-07T03:25:19;28.20;41.10
38020;DHT22;23829;51.350;17.286;2023-09-07T03:27:46;28.20;41.10
38020;DHT22;23829;51.350;17.286;2023-09-07T03:30:14;28.30;41.00
38020;DHT22;23829;51.350;17.286;2023-09-07T03:32:40;28.20;41.10
38020;DHT22;23829;51.350;17.286;2023-09-07T03:35:06;28.40;40.90
38020;DHT22;23829;51.350;17.286;2023-09-07T03:37:36;28.40;40.70
38020;DHT22;23829;51.350;17.286;2023-09-07T03:40:05;28.40;40.50
38020;DHT22;23829;51.350;17.286;2023-09-07T03:42:33;28.40;40.50
38020;DHT22;23829;51.350;17.286;2023-09-07T03:44:59;28.30;40.60
38020;DHT22;23829;51.350;17.286;2023-09-07T03:47:27;28.30;40.80
38020;DHT22;23829;51.350;17.286;2023-09-07T03:49:59;28.20;40.70
38020;DHT22;23829;51.350;17.286;2023-09-07T03:52:27;28.20;40.70
38020;DHT22;23829;51.350;17.286;2023-09-07T03:54:56;28.20;40.80
38020;DHT22;23829;51.350;17.286;2023-09-07T03:57:24;28.20;40.90
38020;DHT22;23829;51.350;17.286;2023-09-07T03:59:51;28.10;40.80
38020;DHT22;23829;51.350;17.286;2023-09-07T04:02:17;28.20;41.00
38020;DHT22;23829;51.350;17.286;2023-09-07T04:04:51;28.10;41.00
38020;DHT22;23829;51.350;17.286;2023-09-07T04:07:17;28.00;41.00
38020;DHT22;23829;51.350;17.286;2023-09-07T04:09:47;28.10;40.90
38020;DHT22;23829;51.350;17.286;2023-09-07T04:12:13;28.10;40.80
38020;DHT22;23829;51.350;17.286;2023-09-07T04:14:39;28.20;40.70
38020;DHT22;23829;51.350;17.286;2023-09-07T04:17:08;28.20;40.50
38020;DHT22;23829;51.350;17.286;2023-09-07T04:19:34;28.30;40.40
38020;DHT22;23829;51.350;17.286;2023-09-07T04:22:00;28.30;40.40
38020;DHT22;23829;51.350;17.286;2023-09-07T04:24:27;28.30;40.40
38020;DHT22;23829;51.350;17.286;2023-09-07T04:26:59;28.20;40.50
38020;DHT22;23829;51.350;17.286;2023-09-07T04:29:26;28.20;40.60
38020;DHT22;23829;51.350;17.286;2023-09-07T04:31:52;28.10;40.70
38020;DHT22;23829;51.350;17.286;2023-09-07T04:34:20;28.00;40.70
38020;DHT22;23829;51.350;17.286;2023-09-07T04:36:47;28.00;41.00
38020;DHT22;23829;51.350;17.286;2023-09-07T04:39:14;28.10;40.90
38020;DHT22;23829;51.350;17.286;2023-09-07T04:41:41;28.10;40.70
38020;DHT22;23829;51.350;17.286;2023-09-07T04:44:07;28.20;40.80
38020;DHT22;23829;51.350;17.286;2023-09-07T04:46:34;28.10;40.90
38020;DHT22;23829;51.350;17.286;2023-09-07T04:49:01;28.10;40.90
38020;DHT22;23829;51.350;17.286;2023-09-07T04:51:27;28.20;41.00
38020;DHT22;23829;51.350;17.286;2023-09-07T04:53:54;28.20;40.90
38020;DHT22;23829;51.350;17.286;2023-09-07T04:56:20;28.20;41.00
38020;DHT22;23829;51.350;17.286;2023-09-07T04:58:48;28.20;41.10
38020;DHT22;23829;51.350;17.286;2023-09-07T05:01:14;28.30;41.10
38020;DHT22;23829;51.350;17.286;2023-09-07T05:03:42;28.40;41.00
38020;DHT22;23829;51.350;17.286;2023-09-07T05:06:11;28.40;41.00
38020;DHT22;23829;51.350;17.286;2023-09-07T05:08:37;28.40;41.00
38020;DHT22;23829;51.350;17.286;2023-09-07T05:11:05;28.40;41.10
38020;DHT22;23829;51.350;17.286;2023-09-07T05:13:31;28.30;41.30
38020;DHT22;23829;51.350;17.286;2023-09-07T05:16:00;28.40;41.30
38020;DHT22;23829;51.350;17.286;2023-09-07T05:18:27;28.50;41.30
38020;DHT22;23829;51.350;17.286;2023-09-07T05:20:54;28.50;41.20
38020;DHT22;23829;51.350;17.286;2023-09-07T05:23:21;28.50;41.80
38020;DHT22;23829;51.350;17.286;2023-09-07T05:25:53;28.50;41.70
38020;DHT22;23829;51.350;17.286;2023-09-07T05:28:22;28.50;41.90
38020;DHT22;23829;51.350;17.286;2023-09-07T05:30:50;28.60;42.00
38020;DHT22;23829;51.350;17.286;2023-09-07T05:33:17;28.60;42.00
38020;DHT22;23829;51.350;17.286;2023-09-07T05:35:45;28.70;42.20
38020;DHT22;23829;51.350;17.286;2023-09-07T05:38:14;28.80;42.30
38020;DHT22;23829;51.350;17.286;2023-09-07T05:40:43;28.80;42.50
38020;DHT22;23829;51.350;17.286;2023-09-07T05:43:13;28.80;42.30
38020;DHT22;23829;51.350;17.286;2023-09-07T05:45:40;28.80;42.70
38020;DHT22;23829;51.350;17.286;2023-09-07T05:48:08;28.90;43.00
38020;DHT22;23829;51.350;17.286;2023-09-07T05:50:36;29.00;43.20
38020;DHT22;23829;51.350;17.286;2023-09-07T05:53:04;29.00;43.10
38020;DHT22;23829;51.350;17.286;2023-09-07T05:55:31;29.10;43.20
38020;DHT22;23829;51.350;17.286;2023-09-07T05:57:58;29.00;43.40
38020;DHT22;23829;51.350;17.286;2023-09-07T06:00:26;29.20;44.00
38020;DHT22;23829;51.350;17.286;2023-09-07T06:02:53;29.30;43.70
38020;DHT22;23829;51.350;17.286;2023-09-07T06:05:20;29.30;44.70
38020;DHT22;23829;51.350;17.286;2023-09-07T06:07:48;29.30;44.30
38020;DHT22;23829;51.350;17.286;2023-09-07T06:10:16;29.40;44.50
38020;DHT22;23829;51.350;17.286;2023-09-07T06:12:45;29.60;44.80
38020;DHT22;23829;51.350;17.286;2023-09-07T06:15:12;29.60;43.70
38020;DHT22;23829;51.350;17.286;2023-09-07T06:17:39;29.60;44.40
38020;DHT22;23829;51.350;17.286;2023-09-07T06:20:07;29.60;44.30
38020;DHT22;23829;51.350;17.286;2023-09-07T06:22:33;29.60;44.10
38020;DHT22;23829;51.350;17.286;2023-09-07T06:24:59;29.80;44.70
38020;DHT22;23829;51.350;17.286;2023-09-07T06:27:26;29.90;44.50
38020;DHT22;23829;51.350;17.286;2023-09-07T06:29:52;29.90;44.20
38020;DHT22;23829;51.350;17.286;2023-09-07T06:32:19;29.90;44.60
38020;DHT22;23829;51.350;17.286;2023-09-07T06:34:46;29.90;44.00
38020;DHT22;23829;51.350;17.286;2023-09-07T06:37:13;29.90;44.20
38020;DHT22;23829;51.350;17.286;2023-09-07T06:39:40;29.80;44.70
38020;DHT22;23829;51.350;17.286;2023-09-07T06:42:09;29.50;44.90
38020;DHT22;23829;51.350;17.286;2023-09-07T06:44:45;29.40;45.30
38020;DHT22;23829;51.350;17.286;2023-09-07T06:47:12;29.40;45.30
38020;DHT22;23829;51.350;17.286;2023-09-07T06:49:39;29.50;45.30
38020;DHT22;23829;51.350;17.286;2023-09-07T06:52:06;29.60;45.00
38020;DHT22;23829;51.350;17.286;2023-09-07T06:54:34;29.60;44.90
38020;DHT22;23829;51.350;17.286;2023-09-07T06:57:01;29.80;44.80
38020;DHT22;23829;51.350;17.286;2023-09-07T06:59:27;30.10;44.40
38020;DHT22;23829;51.350;17.286;2023-09-07T07:01:53;30.30;44.00
38020;DHT22;23829;51.350;17.286;2023-09-07T07:04:20;30.40;44.00
38020;DHT22;23829;51.350;17.286;2023-09-07T07:06:46;30.50;43.90
38020;DHT22;23829;51.350;17.286;2023-09-07T07:09:13;30.30;44.30
38020;DHT22;23829;51.350;17.286;2023-09-07T07:11:40;30.40;44.40
38020;DHT22;23829;51.350;17.286;2023-09-07T07:14:07;30.80;43.90
38020;DHT22;23829;51.350;17.286;2023-09-07T07:16:34;30.90;43.70
38020;DHT22;23829;51.350;17.286;2023-09-07T07:19:01;30.90;43.60
38020;DHT22;23829;51.350;17.286;2023-09-07T07:21:27;30.90;43.40
38020;DHT22;23829;51.350;17.286;2023-09-07T07:23:54;30.80;43.10
38020;DHT22;23829;51.350;17.286;2023-09-07T07:26:20;30.80;42.70
38020;DHT22;23829;51.350;17.286;2023-09-07T07:28:46;30.90;42.60
38020;DHT22;23829;51.350;17.286;2023-09-07T07:31:13;31.10;42.40
38020;DHT22;23829;51.350;17.286;2023-09-07T07:33:44;31.40;42.30
38020;DHT22;23829;51.350;17.286;2023-09-07T07:36:11;31.60;42.30
38020;DHT22;23829;51.350;17.286;2023-09-07T07:38:37;31.60;42.20
38020;DHT22;23829;51.350;17.286;2023-09-07T07:41:04;31.60;42.50
38020;DHT22;23829;51.350;17.286;2023-09-07T07:43:32;31.80;42.30
38020;DHT22;23829;51.350;17.286;2023-09-07T07:45:58;32.00;41.90
38020;DHT22;23829;51.350;17.286;2023-09-07T07:48:26;31.90;41.70
38020;DHT22;23829;51.350;17.286;2023-09-07T07:50:54;31.80;41.10
38020;DHT22;23829;51.350;17.286;2023-09-07T07:53:21;31.80;40.90
38020;DHT22;23829;51.350;17.286;2023-09-07T07:55:48;31.90;40.70
38020;DHT22;23829;51.350;17.286;2023-09-07T07:58:18;31.90;40.80
38020;DHT22;23829;51.350;17.286;2023-09-07T08:00:44;32.00;40.80
38020;DHT22;23829;51.350;17.286;2023-09-07T08:03:15;32.20;40.40
38020;DHT22;23829;51.350;17.286;2023-09-07T08:05:43;32.20;40.60
38020;DHT22;23829;51.350;17.286;2023-09-07T08:08:09;32.20;41.00
38020;DHT22;23829;51.350;17.286;2023-09-07T08:10:36;32.20;41.10
38020;DHT22;23829;51.350;17.286;2023-09-07T08:13:04;32.20;40.60
38020;DHT22;23829;51.350;17.286;2023-09-07T08:15:32;32.20;40.20
38020;DHT22;23829;51.350;17.286;2023-09-07T08:17:59;32.30;40.20
38020;DHT22;23829;51.350;17.286;2023-09-07T08:20:26;32.40;39.60
38020;DHT22;23829;51.350;17.286;2023-09-07T08:22:54;32.50;39.30
38020;DHT22;23829;51.350;17.286;2023-09-07T08:25:20;32.60;39.30
38020;DHT22;23829;51.350;17.286;2023-09-07T08:27:47;32.60;39.20
38020;DHT22;23829;51.350;17.286;2023-09-07T08:30:16;32.80;39.10
38020;DHT22;23829;51.350;17.286;2023-09-07T08:32:46;32.80;39.30
38020;DHT22;23829;51.350;17.286;2023-09-07T08:35:13;32.70;39.30
38020;DHT22;23829;51.350;17.286;2023-09-07T08:37:40;32.80;39.20
38020;DHT22;23829;51.350;17.286;2023-09-07T08:40:07;33.10;38.90
38020;DHT22;23829;51.350;17.286;2023-09-07T08:42:37;33.10;38.50
38020;DHT22;23829;51.350;17.286;2023-09-07T08:45:04;33.10;38.40
38020;DHT22;23829;51.350;17.286;2023-09-07T08:47:34;33.10;38.30
38020;DHT22;23829;51.350;17.286;2023-09-07T08:50:02;33.20;38.50
38020;DHT22;23829;51.350;17.286;2023-09-07T08:52:30;33.20;37.90
38020;DHT22;23829;51.350;17.286;2023-09-07T08:54:57;33.30;37.90
38020;DHT22;23829;51.350;17.286;2023-09-07T08:57:27;33.20;38.70
38020;DHT22;23829;51.350;17.286;2023-09-07T08:59:55;33.10;37.90
38020;DHT22;23829;51.350;17.286;2023-09-07T09:02:21;33.20;38.20
38020;DHT22;23829;51.350;17.286;2023-09-07T09:04:48;33.20;37.80
38020;DHT22;23829;51.350;17.286;2023-09-07T09:07:15;33.20;37.90
38020;DHT22;23829;51.350;17.286;2023-09-07T09:09:41;33.40;37.70
38020;DHT22;23829;51.350;17.286;2023-09-07T09:12:09;33.20;38.00
38020;DHT22;23829;51.350;17.286;2023-09-07T09:14:35;33.10;37.60
38020;DHT22;23829;51.350;17.286;2023-09-07T09:17:02;33.20;37.60
38020;DHT22;23829;51.350;17.286;2023-09-07T09:19:32;33.30;37.70
38020;DHT22;23829;51.350;17.286;2023-09-07T09:21:59;33.70;37.10
38020;DHT22;23829;51.350;17.286;2023-09-07T09:24:25;33.60;37.60
38020;DHT22;23829;51.350;17.286;2023-09-07T09:26:52;33.40;38.00
38020;DHT22;23829;51.350;17.286;2023-09-07T09:29:22;33.20;38.10
38020;DHT22;23829;51.350;17.286;2023-09-07T09:31:51;33.30;38.20
38020;DHT22;23829;51.350;17.286;2023-09-07T09:34:18;33.40;38.90
38020;DHT22;23829;51.350;17.286;2023-09-07T09:36:45;33.80;36.70
38020;DHT22;23829;51.350;17.286;2023-09-07T09:39:24;34.00;36.70
38020;DHT22;23829;51.350;17.286;2023-09-07T09:41:52;34.10;37.20
38020;DHT22;23829;51.350;17.286;2023-09-07T09:44:22;33.80;37.20
38020;DHT22;23829;51.350;17.286;2023-09-07T09:46:53;33.70;37.40
38020;DHT22;23829;51.350;17.286;2023-09-07T09:49:22;33.90;36.90
38020;DHT22;23829;51.350;17.286;2023-09-07T09:51:49;34.10;36.30
38020;DHT22;23829;51.350;17.286;2023-09-07T09:54:19;34.00;35.90
38020;DHT22;23829;51.350;17.286;2023-09-07T09:56:45;34.10;36.00
38020;DHT22;23829;51.350;17.286;2023-09-07T09:59:15;34.20;36.00
38020;DHT22;23829;51.350;17.286;2023-09-07T10:01:44;34.10;36.10
38020;DHT22;23829;51.350;17.286;2023-09-07T10:04:13;34.00;36.70
38020;DHT22;23829;51.350;17.286;2023-09-07T10:06:50;34.10;36.40
38020;DHT22;23829;51.350;17.286;2023-09-07T10:09:19;34.00;36.80
38020;DHT22;23829;51.350;17.286;2023-09-07T10:11:52;34.00;36.60
38020;DHT22;23829;51.350;17.286;2023-09-07T10:14:19;34.20;36.50
38020;DHT22;23829;51.350;17.286;2023-09-07T10:16:47;34.60;36.30
38020;DHT22;23829;51.350;17.286;2023-09-07T10:19:24;34.80;36.30
38020;DHT22;23829;51.350;17.286;2023-09-07T10:21:52;34.60;35.60
38020;DHT22;23829;51.350;17.286;2023-09-07T10:24:29;34.50;35.90
38020;DHT22;23829;51.350;17.286;2023-09-07T10:27:07;34.50;36.40
38020;DHT22;23829;51.350;17.286;2023-09-07T10:29:50;34.70;35.80
38020;DHT22;23829;51.350;17.286;2023-09-07T10:32:20;35.00;34.50
38020;DHT22;23829;51.350;17.286;2023-09-07T10:34:47;35.00;35.50
38020;DHT22;23829;51.350;17.286;2023-09-07T10:37:14;34.80;35.40
38020;DHT22;23829;51.350;17.286;2023-09-07T10:39:42;34.70;35.90
38020;DHT22;23829;51.350;17.286;2023-09-07T10:42:21;35.00;35.10
38020;DHT22;23829;51.350;17.286;2023-09-07T10:44:48;34.90;35.80
38020;DHT22;23829;51.350;17.286;2023-09-07T10:47:14;34.80;35.50
38020;DHT22;23829;51.350;17.286;2023-09-07T10:49:41;34.70;36.10
38020;DHT22;23829;51.350;17.286;2023-09-07T10:52:08;34.80;36.00
38020;DHT22;23829;51.350;17.286;2023-09-07T10:54:34;34.80;36.10
38020;DHT22;23829;51.350;17.286;2023-09-07T10:57:08;34.90;34.90
38020;DHT22;23829;51.350;17.286;2023-09-07T10:59:35;35.20;34.30
38020;DHT22;23829;51.350;17.286;2023-09-07T11:02:06;35.00;35.30
38020;DHT22;23829;51.350;17.286;2023-09-07T11:04:33;35.00;35.30
38020;DHT22;23829;51.350;17.286;2023-09-07T11:06:59;35.10;35.10
38020;DHT22;23829;51.350;17.286;2023-09-07T11:09:25;35.20;33.70
38020;DHT22;23829;51.350;17.286;2023-09-07T11:11:52;35.00;33.70
38020;DHT22;23829;51.350;17.286;2023-09-07T11:14:21;35.00;33.30
38020;DHT22;23829;51.350;17.286;2023-09-07T11:16:48;34.90;33.60
38020;DHT22;23829;51.350;17.286;2023-09-07T11:19:14;34.90;33.00
38020;DHT22;23829;51.350;17.286;2023-09-07T11:21:45;34.90;33.50
38020;DHT22;23829;51.350;17.286;2023-09-07T11:24:11;35.10;33.20
38020;DHT22;23829;51.350;17.286;2023-09-07T11:26:44;35.10;33.20
38020;DHT22;23829;51.350;17.286;2023-09-07T11:29:17;35.50;32.50
38020;DHT22;23829;51.350;17.286;2023-09-07T11:31:45;35.40;33.00
38020;DHT22;23829;51.350;17.286;2023-09-07T11:34:12;35.40;33.00
38020;DHT22;23829;51.350;17.286;2023-09-07T11:36:40;35.40;33.20
38020;DHT22;23829;51.350;17.286;2023-09-07T11:39:07;35.30;33.50
38020;DHT22;23829;51.350;17.286;2023-09-07T11:41:42;35.30;33.50
38020;DHT22;23829;51.350;17.286;2023-09-07T11:44:10;35.40;33.20
38020;DHT22;23829;51.350;17.286;2023-09-07T11:46:36;35.50;32.90
38020;DHT22;23829;51.350;17.286;2023-09-07T11:49:03;35.50;33.20
38020;DHT22;23829;51.350;17.286;2023-09-07T11:51:31;35.50;32.90
38020;DHT22;23829;51.350;17.286;2023-09-07T11:53:57;35.40;33.80
38020;DHT22;23829;51.350;17.286;2023-09-07T11:56:25;35.70;32.50
38020;DHT22;23829;51.350;17.286;2023-09-07T11:58:51;35.60;33.20
38020;DHT22;23829;51.350;17.286;2023-09-07T12:01:18;35.70;33.40
38020;DHT22;23829;51.350;17.286;2023-09-07T12:03:44;35.70;33.50
38020;DHT22;23829;51.350;17.286;2023-09-07T12:06:10;35.50;32.90
38020;DHT22;23829;51.350;17.286;2023-09-07T12:08:37;35.60;33.40
38020;DHT22;23829;51.350;17.286;2023-09-07T12:11:04;35.60;33.10
38020;DHT22;23829;51.350;17.286;2023-09-07T12:13:30;35.70;33.30
38020;DHT22;23829;51.350;17.286;2023-09-07T12:15:56;36.20;31.30
38020;DHT22;23829;51.350;17.286;2023-09-07T12:18:22;35.90;31.90
38020;DHT22;23829;51.350;17.286;2023-09-07T12:20:50;35.60;32.00
38020;DHT22;23829;51.350;17.286;2023-09-07T12:23:16;35.50;32.60
38020;DHT22;23829;51.350;17.286;2023-09-07T12:25:42;35.60;33.00
38020;DHT22;23829;51.350;17.286;2023-09-07T12:28:09;35.60;32.20
38020;DHT22;23829;51.350;17.286;2023-09-07T12:30:36;35.80;32.50
38020;DHT22;23829;51.350;17.286;2023-09-07T12:33:02;36.20;31.90
38020;DHT22;23829;51.350;17.286;2023-09-07T12:35:29;36.00;32.80
38020;DHT22;23829;51.350;17.286;2023-09-07T12:37:55;35.90;33.00
38020;DHT22;23829;51.350;17.286;2023-09-07T12:40:21;36.00;32.60
38020;DHT22;23829;51.350;17.286;2023-09-07T12:42:48;36.00;32.50
38020;DHT22;23829;51.350;17.286;2023-09-07T12:45:15;35.70;32.80
38020;DHT22;23829;51.350;17.286;2023-09-07T12:47:41;36.00;32.60
38020;DHT22;23829;51.350;17.286;2023-09-07T12:50:07;36.20;32.60
38020;DHT22;23829;51.350;17.286;2023-09-07T12:52:34;36.10;32.70
38020;DHT22;23829;51.350;17.286;2023-09-07T12:55:06;36.00;32.70
38020;DHT22;23829;51.350;17.286;2023-09-07T12:57:33;36.20;33.00
38020;DHT22;23829;51.350;17.286;2023-09-07T12:59:59;36.10;32.30
38020;DHT22;23829;51.350;17.286;2023-09-07T13:02:25;36.20;32.70
38020;DHT22;23829;51.350;17.286;2023-09-07T13:04:54;36.30;32.20
38020;DHT22;23829;51.350;17.286;2023-09-07T13:07:21;36.50;31.20
38020;DHT22;23829;51.350;17.286;2023-09-07T13:09:48;36.50;31.50
38020;DHT22;23829;51.350;17.286;2023-09-07T13:12:14;36.50;31.20
38020;DHT22;23829;51.350;17.286;2023-09-07T13:14:40;36.50;31.30
38020;DHT22;23829;51.350;17.286;2023-09-07T13:17:11;36.40;31.60
38020;DHT22;23829;51.350;17.286;2023-09-07T13:19:38;36.40;31.80
38020;DHT22;23829;51.350;17.286;2023-09-07T13:22:04;36.40;31.90
38020;DHT22;23829;51.350;17.286;2023-09-07T13:24:32;36.20;32.10
38020;DHT22;23829;51.350;17.286;2023-09-07T13:26:58;36.10;32.20
38020;DHT22;23829;51.350;17.286;2023-09-07T13:29:24;36.20;32.20
38020;DHT22;23829;51.350;17.286;2023-09-07T13:31:52;36.30;32.80
38020;DHT22;23829;51.350;17.286;2023-09-07T13:34:21;36.30;32.30
38020;DHT22;23829;51.350;17.286;2023-09-07T13:36:47;35.90;32.00
38020;DHT22;23829;51.350;17.286;2023-09-07T13:39:13;35.70;32.30
38020;DHT22;23829;51.350;17.286;2023-09-07T13:41:39;35.90;32.50
38020;DHT22;23829;51.350;17.286;2023-09-07T13:44:06;35.90;32.50
38020;DHT22;23829;51.350;17.286;2023-09-07T13:46:32;36.10;32.30
38020;DHT22;23829;51.350;17.286;2023-09-07T13:48:59;36.10;31.80
38020;DHT22;23829;51.350;17.286;2023-09-07T13:51:26;36.30;31.70
38020;DHT22;23829;51.350;17.286;2023-09-07T13:53:52;36.10;32.20
38020;DHT22;23829;51.350;17.286;2023-09-07T13:56:18;36.00;32.00
38020;DHT22;23829;51.350;17.286;2023-09-07T13:58:45;36.00;32.20
38020;DHT22;23829;51.350;17.286;2023-09-07T14:01:12;36.30;30.90
38020;DHT22;23829;51.350;17.286;2023-09-07T14:03:38;36.30;31.50
38020;DHT22;23829;51.350;17.286;2023-09-07T14:06:04;36.30;31.60
38020;DHT22;23829;51.350;17.286;2023-09-07T14:08:31;36.20;32.00
38020;DHT22;23829;51.350;17.286;2023-09-07T14:10:59;36.20;33.10
38020;DHT22;23829;51.350;17.286;2023-09-07T14:13:25;36.30;32.10
38020;DHT22;23829;51.350;17.286;2023-09-07T14:15:51;36.20;32.20
38020;DHT22;23829;51.350;17.286;2023-09-07T14:18:18;36.10;32.50
38020;DHT22;23829;51.350;17.286;2023-09-07T14:20:44;36.10;32.70
38020;DHT22;23829;51.350;17.286;2023-09-07T14:23:11;36.20;32.50
38020;DHT22;23829;51.350;17.286;2023-09-07T14:25:37;36.20;32.30
38020;DHT22;23829;51.350;17.286;2023-09-07T14:28:08;35.90;32.90
38020;DHT22;23829;51.350;17.286;2023-09-07T14:30:34;35.90;32.50
38020;DHT22;23829;51.350;17.286;2023-09-07T14:33:01;35.80;33.20
38020;DHT22;23829;51.350;17.286;2023-09-07T14:35:27;35.70;33.50
38020;DHT22;23829;51.350;17.286;2023-09-07T14:37:53;35.70;33.80
38020;DHT22;23829;51.350;17.286;2023-09-07T14:40:20;35.90;33.50
38020;DHT22;23829;51.350;17.286;2023-09-07T14:42:48;36.10;33.20
38020;DHT22;23829;51.350;17.286;2023-09-07T14:45:16;35.90;33.50
38020;DHT22;23829;51.350;17.286;2023-09-07T14:47:43;35.80;33.40
38020;DHT22;23829;51.350;17.286;2023-09-07T14:50:09;35.80;33.60
38020;DHT22;23829;51.350;17.286;2023-09-07T14:52:35;35.60;33.20
38020;DHT22;23829;51.350;17.286;2023-09-07T14:55:07;35.70;33.20
38020;DHT22;23829;51.350;17.286;2023-09-07T14:57:34;35.60;33.50
38020;DHT22;23829;51.350;17.286;2023-09-07T15:00:01;35.60;33.70
38020;DHT22;23829;51.350;17.286;2023-09-07T15:02:27;35.60;33.70
38020;DHT22;23829;51.350;17.286;2023-09-07T15:04:54;35.70;33.80
38020;DHT22;23829;51.350;17.286;2023-09-07T15:07:20;35.80;33.60
38020;DHT22;23829;51.350;17.286;2023-09-07T15:09:49;35.50;33.10
38020;DHT22;23829;51.350;17.286;2023-09-07T15:12:16;35.40;33.50
38020;DHT22;23829;51.350;17.286;2023-09-07T15:14:42;35.60;32.70
38020;DHT22;23829;51.350;17.286;2023-09-07T15:17:11;35.40;33.20